createdAt,value
2023-03-03T00:00:30.723Z,-0.30
2023-03-03T00:03:06.375Z,-0.27
2023-03-03T00:05:34.671Z,-0.25
2023-03-03T00:08:02.472Z,-0.21
2023-03-03T00:10:32.638Z,-0.20
2023-03-03T00:13:03.078Z,-0.17
2023-03-03T00:15:33.436Z,-0.16
2023-03-03T00:18:00.556Z,-0.13
2023-03-03T00:20:41.011Z,-0.10
2023-03-03T00:23:26.235Z,-0.07
2023-03-03T00:25:54.454Z,-0.04
2023-03-03T00:28:34.815Z,-0.01
2023-03-03T00:31:10.179Z,0.01
2023-03-03T00:33:57.614Z,0.03
2023-03-03T00:36:34.937Z,0.05
2023-03-03T00:39:23.828Z,0.09
2023-03-03T00:41:53.975Z,0.12
2023-03-03T00:44:52.356Z,0.15
2023-03-03T00:47:39.601Z,0.18
2023-03-03T00:50:06.739Z,0.18
2023-03-03T00:52:47.401Z,0.20
2023-03-03T00:55:16.653Z,0.19
2023-03-03T00:57:47.060Z,0.18
2023-03-03T01:00:25.188Z,0.19
2023-03-03T01:06:07.050Z,0.21
2023-03-03T01:08:42.216Z,0.23
2023-03-03T01:11:29.918Z,0.22
2023-03-03T01:14:01.050Z,0.22
2023-03-03T01:16:35.982Z,0.18
2023-03-03T01:19:06.129Z,0.14
2023-03-03T01:21:34.458Z,0.12
2023-03-03T01:24:02.846Z,0.11
2023-03-03T01:26:29.944Z,0.11
2023-03-03T01:29:01.687Z,0.08
2023-03-03T01:31:28.951Z,0.05
2023-03-03T01:33:57.958Z,0.03
2023-03-03T01:36:27.732Z,0.02
2023-03-03T01:38:54.820Z,0.01
2023-03-03T01:41:34.917Z,0.00
2023-03-03T01:44:03.829Z,0.00
2023-03-03T01:46:34.582Z,0.00
2023-03-03T01:49:22.811Z,-0.02
2023-03-03T01:51:57.727Z,-0.01
2023-03-03T01:54:46.657Z,-0.01
2023-03-03T01:57:18.833Z,0.01
2023-03-03T01:59:51.398Z,0.02
2023-03-03T02:02:18.993Z,0.03
2023-03-03T02:04:45.840Z,0.04
2023-03-03T02:07:16.596Z,0.03
2023-03-03T02:10:04.347Z,0.05
2023-03-03T02:12:35.667Z,0.06
2023-03-03T02:15:22.607Z,0.06
2023-03-03T02:17:53.872Z,0.07
2023-03-03T02:20:41.622Z,0.08
2023-03-03T02:23:30.363Z,0.08
2023-03-03T02:26:06.706Z,0.08
2023-03-03T02:28:36.397Z,0.07
2023-03-03T02:31:15.668Z,0.07
2023-03-03T02:33:48.434Z,0.06
2023-03-03T02:36:42.384Z,0.08
2023-03-03T02:39:27.746Z,0.07
2023-03-03T02:42:05.825Z,0.08
2023-03-03T02:44:40.141Z,0.08
2023-03-03T02:47:07.084Z,0.09
2023-03-03T02:49:38.128Z,0.09
2023-03-03T02:52:10.050Z,0.10
2023-03-03T02:54:44.693Z,0.11
2023-03-03T02:57:11.646Z,0.11
2023-03-03T02:59:39.675Z,0.12
2023-03-03T03:02:16.294Z,0.11
2023-03-03T03:04:45.316Z,0.12
2023-03-03T03:07:17.620Z,0.11
2023-03-03T03:09:48.019Z,0.11
2023-03-03T03:12:21.766Z,0.11
2023-03-03T03:14:53.585Z,0.10
2023-03-03T03:17:20.514Z,0.10
2023-03-03T03:19:58.055Z,0.08
2023-03-03T03:22:26.373Z,0.07
2023-03-03T03:24:53.837Z,0.07
2023-03-03T03:27:23.523Z,0.09
2023-03-03T03:29:52.532Z,0.07
2023-03-03T03:32:20.247Z,0.03
2023-03-03T03:34:53.257Z,0.02
2023-03-03T03:37:23.009Z,0.00
2023-03-03T03:39:49.969Z,-0.03
2023-03-03T03:42:18.578Z,-0.05
2023-03-03T03:44:53.080Z,-0.06
2023-03-03T03:47:19.997Z,-0.05
2023-03-03T03:49:47.395Z,-0.03
2023-03-03T03:52:14.482Z,-0.03
2023-03-03T03:54:48.047Z,-0.03
2023-03-03T03:57:18.132Z,-0.03
2023-03-03T03:59:49.639Z,-0.01
2023-03-03T04:02:18.610Z,-0.03
2023-03-03T04:04:45.815Z,-0.02
2023-03-03T04:07:15.974Z,-0.01
2023-03-03T04:09:49.486Z,-0.01
2023-03-03T04:12:22.759Z,0.02
2023-03-03T04:14:59.317Z,0.00
2023-03-03T04:17:27.679Z,0.02
2023-03-03T04:19:55.515Z,0.01
2023-03-03T04:22:23.070Z,0.01
2023-03-03T04:24:50.312Z,-0.01
2023-03-03T04:27:21.578Z,-0.01
2023-03-03T04:29:52.201Z,-0.04
2023-03-03T04:32:21.484Z,-0.03
2023-03-03T04:37:30.069Z,-0.01
2023-03-03T04:39:59.438Z,0.01
2023-03-03T04:42:30.537Z,-0.01
2023-03-03T04:44:59.253Z,-0.01
2023-03-03T04:47:29.242Z,0.02
2023-03-03T04:49:59.001Z,0.04
2023-03-03T04:52:28.991Z,0.08
2023-03-03T04:54:58.640Z,0.07
2023-03-03T04:57:29.647Z,0.06
2023-03-03T04:59:58.364Z,0.07
2023-03-03T05:02:28.360Z,0.07
2023-03-03T05:04:57.605Z,0.09
2023-03-03T05:07:24.877Z,0.09
2023-03-03T05:09:55.524Z,0.10
2023-03-03T05:12:24.192Z,0.13
2023-03-03T05:14:54.193Z,0.17
2023-03-03T05:17:23.386Z,0.20
2023-03-03T05:19:58.961Z,0.25
2023-03-03T05:22:27.397Z,0.28
2023-03-03T05:24:59.907Z,0.30
2023-03-03T05:27:29.716Z,0.32
2023-03-03T05:29:59.272Z,0.32
2023-03-03T05:32:26.470Z,0.35
2023-03-03T05:34:59.150Z,0.37
2023-03-03T05:37:26.041Z,0.39
2023-03-03T05:39:54.182Z,0.41
2023-03-03T05:42:24.249Z,0.41
2023-03-03T05:44:52.211Z,0.41
2023-03-03T05:47:19.380Z,0.41
2023-03-03T05:49:46.302Z,0.40
2023-03-03T05:52:15.856Z,0.40
2023-03-03T05:54:45.387Z,0.43
2023-03-03T05:57:12.430Z,0.44
2023-03-03T05:59:39.601Z,0.46
2023-03-03T06:02:06.937Z,0.47
2023-03-03T06:04:34.368Z,0.50
2023-03-03T06:07:01.555Z,0.53
2023-03-03T06:09:28.541Z,0.54
2023-03-03T06:11:55.742Z,0.53
2023-03-03T06:14:24.390Z,0.54
2023-03-03T06:16:54.645Z,0.51
2023-03-03T06:19:21.647Z,0.46
2023-03-03T06:21:48.836Z,0.44
2023-03-03T06:24:16.316Z,0.47
2023-03-03T06:26:43.627Z,0.50
2023-03-03T06:29:13.645Z,0.56
2023-03-03T06:31:42.396Z,0.60
2023-03-03T06:34:09.236Z,0.68
2023-03-03T06:36:36.144Z,0.75
2023-03-03T06:39:04.011Z,0.80
2023-03-03T06:41:31.748Z,0.90
2023-03-03T06:44:00.384Z,1.00
2023-03-03T06:46:29.778Z,1.04
2023-03-03T06:48:56.741Z,1.08
2023-03-03T06:51:26.950Z,1.06
2023-03-03T06:53:56.775Z,1.04
2023-03-03T06:56:27.162Z,1.00
2023-03-03T06:58:59.228Z,1.00
2023-03-03T07:01:26.143Z,1.03
2023-03-03T07:03:53.202Z,1.06
2023-03-03T07:06:26.638Z,1.08
2023-03-03T07:08:58.376Z,1.08
2023-03-03T07:11:28.191Z,1.09
2023-03-03T07:13:55.427Z,1.12
2023-03-03T07:16:27.232Z,1.14
2023-03-03T07:18:55.464Z,1.16
2023-03-03T07:21:23.567Z,1.15
2023-03-03T07:23:51.860Z,1.15
2023-03-03T07:26:25.470Z,1.20
2023-03-03T07:28:52.287Z,1.23
2023-03-03T07:31:54.186Z,1.28
2023-03-03T07:34:21.685Z,1.28
2023-03-03T07:36:55.738Z,1.30
2023-03-03T07:39:28.736Z,1.32
2023-03-03T07:42:11.020Z,1.34
2023-03-03T07:44:38.179Z,1.33
2023-03-03T07:47:25.220Z,1.32
2023-03-03T07:50:21.794Z,1.28
2023-03-03T07:52:57.168Z,1.26
2023-03-03T07:55:30.074Z,1.28
2023-03-03T07:58:17.300Z,1.32
2023-03-03T08:00:51.182Z,1.33
2023-03-03T08:03:20.103Z,1.34
2023-03-03T08:05:50.976Z,1.36
2023-03-03T08:08:32.566Z,1.40
2023-03-03T08:11:00.664Z,1.50
2023-03-03T08:13:38.215Z,1.55
2023-03-03T08:16:11.262Z,1.67
2023-03-03T08:18:44.084Z,1.77
2023-03-03T08:21:19.148Z,1.84
2023-03-03T08:23:46.868Z,1.90
2023-03-03T08:26:14.229Z,1.91
2023-03-03T08:28:41.497Z,1.92
2023-03-03T08:31:19.969Z,1.90
2023-03-03T08:33:52.232Z,1.91
2023-03-03T08:36:30.198Z,1.91
2023-03-03T08:38:57.323Z,1.96
2023-03-03T08:41:24.170Z,2.06
2023-03-03T08:43:51.130Z,2.13
2023-03-03T08:46:18.147Z,2.23
2023-03-03T08:48:45.753Z,2.31
2023-03-03T08:51:12.743Z,2.34
2023-03-03T08:53:39.679Z,2.32
2023-03-03T08:56:07.226Z,2.29
2023-03-03T08:58:36.007Z,2.32
2023-03-03T09:01:04.186Z,2.33
2023-03-03T09:03:31.117Z,2.30
2023-03-03T09:05:58.098Z,2.34
2023-03-03T09:08:24.987Z,2.43
2023-03-03T09:10:51.886Z,2.43
2023-03-03T09:13:19.516Z,2.41
2023-03-03T09:15:47.188Z,2.39
2023-03-03T09:18:17.147Z,2.38
2023-03-03T09:20:51.255Z,2.36
2023-03-03T09:23:24.319Z,2.33
2023-03-03T09:25:51.700Z,2.28
2023-03-03T09:28:32.436Z,2.33
2023-03-03T09:31:03.624Z,2.39
2023-03-03T09:37:00.205Z,2.46
2023-03-03T09:39:29.464Z,2.51
2023-03-03T09:42:13.787Z,2.52
2023-03-03T09:44:48.723Z,2.49
2023-03-03T09:47:27.880Z,2.46
2023-03-03T09:50:13.174Z,2.48
2023-03-03T09:52:46.158Z,2.54
2023-03-03T09:55:25.602Z,2.66
2023-03-03T09:58:08.231Z,2.74
2023-03-03T10:01:15.333Z,2.82
2023-03-03T10:03:46.616Z,2.90
2023-03-03T10:06:24.318Z,2.83
2023-03-03T10:09:01.324Z,2.70
2023-03-03T10:11:34.386Z,2.63
2023-03-03T10:14:10.713Z,2.63
2023-03-03T10:16:37.628Z,2.66
2023-03-03T10:19:34.417Z,2.72
2023-03-03T10:22:17.491Z,2.85
2023-03-03T10:24:52.839Z,2.96
2023-03-03T10:27:30.608Z,3.00
2023-03-03T10:30:08.432Z,3.01
2023-03-03T10:32:55.359Z,3.02
2023-03-03T10:35:26.215Z,3.06
2023-03-03T10:37:56.071Z,3.04
2023-03-03T10:40:23.071Z,3.00
2023-03-03T10:43:19.710Z,3.00
2023-03-03T10:46:02.191Z,2.92
2023-03-03T10:48:39.657Z,2.85
2023-03-03T10:51:21.912Z,2.79
2023-03-03T10:54:10.540Z,2.73
2023-03-03T10:57:09.958Z,2.72
2023-03-03T10:59:52.267Z,2.74
2023-03-03T11:02:22.779Z,2.74
2023-03-03T11:05:02.493Z,2.71
2023-03-03T11:07:40.856Z,2.61
2023-03-03T11:10:13.915Z,2.56
2023-03-03T11:12:47.901Z,2.52
2023-03-03T11:15:14.902Z,2.55
2023-03-03T11:17:44.815Z,2.53
2023-03-03T11:20:19.596Z,2.49
2023-03-03T11:23:11.973Z,2.46
2023-03-03T11:25:46.705Z,2.48
2023-03-03T11:28:29.957Z,2.52
2023-03-03T11:31:02.997Z,2.51
2023-03-03T11:33:33.110Z,2.51
2023-03-03T11:36:18.164Z,2.55
2023-03-03T11:38:48.661Z,2.56
2023-03-03T11:41:33.031Z,2.51
2023-03-03T11:44:05.930Z,2.50
2023-03-03T11:47:02.994Z,2.55
2023-03-03T11:49:36.052Z,2.51
2023-03-03T11:52:06.151Z,2.50
2023-03-03T11:55:02.264Z,2.55
2023-03-03T11:57:33.425Z,2.66
2023-03-03T12:00:19.128Z,2.70
2023-03-03T12:02:52.632Z,2.74
2023-03-03T12:05:19.704Z,2.73
2023-03-03T12:07:49.824Z,2.66
2023-03-03T12:10:35.575Z,2.58
2023-03-03T12:13:12.227Z,2.46
2023-03-03T12:15:45.513Z,2.35
2023-03-03T12:18:31.424Z,2.29
2023-03-03T12:21:10.510Z,2.22
2023-03-03T12:24:03.751Z,2.21
2023-03-03T12:26:37.905Z,2.21
2023-03-03T12:29:23.928Z,2.22
2023-03-03T12:32:06.079Z,2.23
2023-03-03T12:34:33.174Z,2.23
2023-03-03T12:37:06.401Z,2.24
2023-03-03T12:39:52.292Z,2.27
2023-03-03T12:42:38.944Z,2.25
2023-03-03T12:45:32.371Z,2.22
2023-03-03T12:48:10.049Z,2.19
2023-03-03T12:50:43.322Z,2.21
2023-03-03T12:53:10.778Z,2.22
2023-03-03T12:55:44.223Z,2.22
2023-03-03T12:58:41.023Z,2.26
2023-03-03T13:01:15.190Z,2.30
2023-03-03T13:03:58.389Z,2.31
2023-03-03T13:06:30.521Z,2.39
2023-03-03T13:09:01.136Z,2.46
2023-03-03T13:11:47.295Z,2.56
2023-03-03T13:14:35.188Z,2.65
2023-03-03T13:17:22.854Z,2.67
2023-03-03T13:20:01.157Z,2.69
2023-03-03T13:22:29.271Z,2.68
2023-03-03T13:24:56.220Z,2.65
2023-03-03T13:27:25.172Z,2.57
2023-03-03T13:29:59.491Z,2.48
2023-03-03T13:32:32.656Z,2.45
2023-03-03T13:35:09.062Z,2.43
2023-03-03T13:37:39.262Z,2.43
2023-03-03T13:40:13.914Z,2.50
2023-03-03T13:43:06.263Z,2.52
2023-03-03T13:45:58.613Z,2.56
2023-03-03T13:48:33.108Z,2.58
2023-03-03T13:51:18.780Z,2.62
2023-03-03T13:53:58.121Z,2.65
2023-03-03T13:56:34.091Z,2.63
2023-03-03T13:59:13.248Z,2.62
2023-03-03T14:01:43.105Z,2.59
2023-03-03T14:04:10.067Z,2.51
2023-03-03T14:06:40.216Z,2.39
2023-03-03T14:09:30.537Z,2.42
2023-03-03T14:12:16.282Z,2.44
2023-03-03T14:14:58.329Z,2.48
2023-03-03T14:17:25.485Z,2.51
2023-03-03T14:20:11.432Z,2.53
2023-03-03T14:22:53.131Z,2.53
2023-03-03T14:25:20.492Z,2.49
2023-03-03T14:27:47.517Z,2.44
2023-03-03T14:30:24.113Z,2.40
2023-03-03T14:33:01.920Z,2.34
2023-03-03T14:35:39.597Z,2.26
2023-03-03T14:38:12.606Z,2.17
2023-03-03T14:40:43.006Z,2.10
2023-03-03T14:43:22.472Z,2.05
2023-03-03T14:45:49.501Z,2.00
2023-03-03T14:48:16.737Z,1.94
2023-03-03T14:50:47.317Z,1.89
2023-03-03T14:53:17.544Z,1.86
2023-03-03T14:55:46.886Z,1.84
2023-03-03T14:58:31.343Z,1.80
2023-03-03T15:01:13.506Z,1.80
2023-03-03T15:03:52.616Z,1.78
2023-03-03T15:07:02.310Z,1.79
2023-03-03T15:09:35.820Z,1.79
2023-03-03T15:12:04.005Z,1.78
2023-03-03T15:14:32.602Z,1.78
2023-03-03T15:17:19.702Z,1.78
2023-03-03T15:19:51.891Z,1.78
2023-03-03T15:22:43.602Z,1.77
2023-03-03T15:25:34.811Z,1.77
2023-03-03T15:28:22.924Z,1.76
2023-03-03T15:31:08.133Z,1.73
2023-03-03T15:33:44.049Z,1.71
2023-03-03T15:36:10.936Z,1.68
2023-03-03T15:38:49.989Z,1.65
2023-03-03T15:41:29.242Z,1.62
2023-03-03T15:44:34.688Z,1.62
2023-03-03T15:47:20.348Z,1.61
2023-03-03T15:49:49.871Z,1.60
2023-03-03T15:52:23.673Z,1.61
2023-03-03T15:54:53.602Z,1.63
2023-03-03T15:57:41.242Z,1.65
2023-03-03T16:00:16.953Z,1.65
2023-03-03T16:02:47.050Z,1.66
2023-03-03T16:05:16.627Z,1.66
2023-03-03T16:07:53.302Z,1.64
2023-03-03T16:10:40.277Z,1.63
2023-03-03T16:13:12.530Z,1.64
2023-03-03T16:16:12.513Z,1.65
2023-03-03T16:18:49.232Z,1.61
2023-03-03T16:21:25.709Z,1.61
2023-03-03T16:24:10.914Z,1.59
2023-03-03T16:26:56.224Z,1.58
2023-03-03T16:29:23.064Z,1.57
2023-03-03T16:35:01.337Z,1.56
2023-03-03T16:37:45.044Z,1.54
2023-03-03T16:40:22.089Z,1.55
2023-03-03T16:43:04.004Z,1.53
2023-03-03T16:45:34.376Z,1.52
2023-03-03T16:48:21.674Z,1.51
2023-03-03T16:51:10.032Z,1.49
2023-03-03T16:53:58.395Z,1.47
2023-03-03T16:57:01.129Z,1.44
2023-03-03T17:00:31.175Z,1.41
2023-03-03T17:03:04.407Z,1.36
2023-03-03T17:05:34.473Z,1.31
2023-03-03T17:08:09.164Z,1.28
2023-03-03T17:10:39.187Z,1.21
2023-03-03T17:13:31.307Z,1.18
2023-03-03T17:16:49.766Z,1.13
2023-03-03T17:19:40.296Z,1.12
2023-03-03T17:22:10.662Z,1.11
2023-03-03T17:24:51.097Z,1.10
2023-03-03T17:27:41.350Z,1.09
2023-03-03T17:30:30.091Z,1.09
2023-03-03T17:33:18.349Z,1.06
2023-03-03T17:36:42.667Z,1.02
2023-03-03T17:40:21.807Z,0.96
2023-03-03T17:42:59.056Z,0.89
2023-03-03T17:45:42.147Z,0.86
2023-03-03T17:48:42.262Z,0.86
2023-03-03T17:51:36.705Z,0.89
2023-03-03T17:54:16.877Z,0.90
2023-03-03T17:57:14.150Z,0.90
2023-03-03T18:00:09.751Z,0.89
2023-03-03T18:02:58.300Z,0.87
2023-03-03T18:05:47.705Z,0.89
2023-03-03T18:08:54.420Z,0.88
2023-03-03T18:11:51.527Z,0.91
2023-03-03T18:14:29.815Z,0.94
2023-03-03T18:17:17.526Z,0.92
2023-03-03T18:20:18.600Z,0.92
2023-03-03T18:22:54.938Z,0.91
2023-03-03T18:25:59.970Z,0.88
2023-03-03T18:28:47.843Z,0.83
2023-03-03T18:31:49.709Z,0.78
2023-03-03T18:34:33.153Z,0.71
2023-03-03T18:37:05.485Z,0.61
2023-03-03T18:40:06.517Z,0.51
2023-03-03T18:46:41.520Z,0.26
2023-03-03T18:49:17.868Z,0.19
2023-03-03T18:54:34.206Z,0.00
2023-03-03T18:57:09.451Z,-0.07
2023-03-03T18:59:40.682Z,-0.14
2023-03-03T19:02:12.318Z,-0.22
2023-03-03T19:05:21.461Z,-0.28
2023-03-03T19:07:58.563Z,-0.34
2023-03-03T19:10:53.562Z,-0.39
2023-03-03T19:13:53.066Z,-0.46
2023-03-03T19:20:05.768Z,-0.58
2023-03-03T19:23:33.709Z,-0.62
2023-03-03T19:29:52.006Z,-0.71
2023-03-03T19:33:25.967Z,-0.74
2023-03-03T19:35:58.315Z,-0.80
2023-03-03T19:38:33.576Z,-0.82
2023-03-03T19:41:09.292Z,-0.85
2023-03-03T19:44:03.225Z,-0.86
2023-03-03T19:52:42.050Z,-0.94
2023-03-03T19:55:35.151Z,-0.96
2023-03-03T20:02:45.880Z,-1.03
2023-03-03T20:05:50.100Z,-1.03
2023-03-03T20:08:41.529Z,-1.03
2023-03-03T20:11:22.108Z,-1.04
2023-03-03T20:13:54.820Z,-1.04
2023-03-03T20:16:28.845Z,-1.03
2023-03-03T20:19:05.954Z,-1.02
2023-03-03T20:21:49.482Z,-1.00
2023-03-03T20:27:44.710Z,-0.91
2023-03-03T20:30:16.955Z,-0.87
2023-03-03T20:32:44.950Z,-0.83
2023-03-03T20:35:25.113Z,-0.78
2023-03-03T20:38:15.624Z,-0.75
2023-03-03T20:41:19.307Z,-0.73
2023-03-03T20:49:41.251Z,-0.68
2023-03-03T20:52:22.530Z,-0.65
2023-03-03T20:57:43.826Z,-0.56
2023-03-03T21:07:10.235Z,-0.50
2023-03-03T21:12:37.712Z,-0.50
2023-03-03T21:15:07.560Z,-0.51
2023-03-03T21:17:35.812Z,-0.52
2023-03-03T21:20:23.867Z,-0.53
2023-03-03T21:37:54.285Z,-0.60
2023-03-03T21:40:31.458Z,-0.57
2023-03-03T21:43:00.017Z,-0.57
2023-03-03T21:45:27.757Z,-0.57
2023-03-03T21:47:56.566Z,-0.59
2023-03-03T21:50:29.373Z,-0.58
2023-03-03T21:57:19.454Z,-0.53
2023-03-03T21:59:46.555Z,-0.50
2023-03-03T22:05:45.600Z,-0.57
2023-03-03T22:08:16.963Z,-0.58
2023-03-03T22:10:56.963Z,-0.55
2023-03-03T22:16:08.407Z,-0.50
2023-03-03T22:18:39.205Z,-0.51
2023-03-03T22:27:27.076Z,-0.46
2023-03-03T22:33:58.597Z,-0.45
2023-03-03T22:44:45.740Z,-0.48
2023-03-03T22:47:12.965Z,-0.51
2023-03-03T22:56:05.914Z,-0.56
2023-03-03T22:58:33.142Z,-0.58
2023-03-03T23:00:59.962Z,-0.59
2023-03-03T23:03:26.860Z,-0.62
2023-03-03T23:05:53.797Z,-0.62
2023-03-03T23:08:21.141Z,-0.63
2023-03-03T23:10:49.611Z,-0.65
2023-03-03T23:13:18.575Z,-0.66
2023-03-03T23:15:47.316Z,-0.66
2023-03-03T23:18:14.947Z,-0.68
2023-03-03T23:20:46.073Z,-0.67
2023-03-03T23:23:13.267Z,-0.67
2023-03-03T23:25:40.333Z,-0.68
2023-03-03T23:28:51.542Z,-0.69
2023-03-03T23:31:18.464Z,-0.68
2023-03-03T23:33:45.660Z,-0.66
2023-03-03T23:36:13.233Z,-0.66
2023-03-03T23:38:42.906Z,-0.67
2023-03-03T23:41:10.017Z,-0.66
2023-03-03T23:43:37.725Z,-0.66
2023-03-03T23:46:05.370Z,-0.66
2023-03-03T23:54:01.782Z,-0.70
2023-03-03T23:56:34.276Z,-0.71
2023-03-03T23:59:07.745Z,-0.72
